Terminal Aerodrome Forecast
Issued by NWS

Home | Current Version | Previous Version | Text Only | Print | Product List | Glossary On
Versions: 1 2 3 4 5 6 7 8 9 10 11 12 13 14 15
000
FTUS45 KRIW 260500
TAFLND
TAF
KLND 260539Z 2606/2706 23005KT P6SM SCT090
     FM260900 VRB04KT P6SM VCFG FEW004 SCT080
     FM261600 VRB05KT P6SM SCT080
     FM262100 VRB10KT P6SM VCTS SCT050 BKN080CB
     FM270200 25007KT P6SM VCSH BKN050=

USA.gov is the U.S. government's official web portal to all federal, state and local government web resources and services.